Time;durP1;ratioP1;P1;durP2;ratioP2;P2;SDS_P1;SDS_P2;PMS_P1;PMS_P2;Temp;Humidity;BMP_temperature;BMP_pressure;BME280_temperature;BME280_humidity;BME280_pressure;Samples;Min_cycle;Max_cycle;Signal;HPM_P1;HPM_P2
2023/12/13 00:01:33;;;;;;;0.90;0.90;;;1.90;99.90;3.90;95535.00;;;;5049045;28;20438;-68
2023/12/13 00:04:22;;;;;;;0.87;0.87;;;2.10;99.90;3.80;95561.00;;;;5050431;28;20469;-68
2023/12/13 00:07:11;;;;;;;1.30;1.30;;;2.20;99.90;3.70;95556.00;;;;5048442;28;20881;-66
2023/12/13 00:10:01;;;;;;;0.90;0.90;;;2.20;99.90;3.90;95544.00;;;;5050539;28;20204;-68
2023/12/13 00:12:50;;;;;;;0.80;0.80;;;2.20;99.90;4.00;95533.00;;;;5046837;28;20423;-69
2023/12/13 00:15:39;;;;;;;1.07;1.07;;;2.20;99.90;3.80;95524.00;;;;5049780;28;20467;-67
2023/12/13 00:18:28;;;;;;;0.93;0.93;;;2.20;99.90;4.10;95513.00;;;;5049949;28;20431;-68
2023/12/13 00:21:17;;;;;;;1.63;1.53;;;2.20;99.90;4.20;95527.00;;;;5049448;28;20427;-69
2023/12/13 00:24:08;;;;;;;1.47;1.37;;;2.30;99.90;4.10;95515.00;;;;5047174;28;20437;-67
2023/12/13 00:26:59;;;;;;;1.10;1.10;;;2.30;99.90;3.70;95520.00;;;;5047932;28;20454;-64
2023/12/13 00:29:48;;;;;;;0.90;0.90;;;3.30;99.90;3.80;95531.00;;;;5053674;28;20454;-66
2023/12/13 00:32:37;;;;;;;1.43;1.33;;;2.20;99.90;3.60;95516.00;;;;5051805;28;20200;-64
2023/12/13 00:35:26;;;;;;;0.87;0.87;;;2.10;99.90;3.40;95516.00;;;;5051035;28;20239;-66
2023/12/13 00:38:15;;;;;;;1.30;1.30;;;2.10;99.90;3.80;95518.00;;;;5049949;28;20936;-65
2023/12/13 00:41:04;;;;;;;1.57;1.47;;;2.10;99.90;3.90;95507.00;;;;5048576;28;20431;-64
2023/12/13 00:43:54;;;;;;;0.90;0.90;;;2.10;99.90;3.80;95499.00;;;;5046046;28;20427;-65
2023/12/13 00:46:43;;;;;;;0.63;0.63;;;2.00;99.90;4.00;95500.00;;;;5050706;28;20442;-65
2023/12/13 00:49:32;;;;;;;1.50;1.40;;;2.10;99.90;3.80;95499.00;;;;5048120;28;20494;-64
2023/12/13 00:52:21;;;;;;;0.83;0.83;;;2.10;99.90;4.00;95502.00;;;;5046788;28;20963;-64
2023/12/13 00:55:10;;;;;;;1.60;1.50;;;2.20;99.90;4.40;95482.00;;;;5047799;28;20828;-66
2023/12/13 00:57:59;;;;;;;0.83;0.83;;;2.30;99.90;4.00;95480.00;;;;5047234;28;20510;-67
2023/12/13 01:00:49;;;;;;;0.90;0.90;;;2.00;99.90;4.20;95497.00;;;;5050266;28;20473;-66
2023/12/13 01:03:38;;;;;;;1.03;1.03;;;2.40;99.90;4.30;95501.00;;;;5048772;28;20216;-66
2023/12/13 01:06:27;;;;;;;0.80;0.80;;;2.40;99.90;4.10;95484.00;;;;5049932;28;20510;-66
2023/12/13 01:09:16;;;;;;;1.27;1.27;;;2.30;99.90;4.00;95487.00;;;;5049671;28;20735;-65
2023/12/13 01:12:05;;;;;;;1.60;1.50;;;2.30;99.90;3.60;95464.00;;;;5046301;28;20204;-64
2023/12/13 01:14:54;;;;;;;0.80;0.80;;;2.20;99.90;3.30;95476.00;;;;5045610;28;20431;-67
2023/12/13 01:17:45;;;;;;;0.83;0.83;;;2.10;99.90;3.40;95473.00;;;;5048862;28;20728;-66
2023/12/13 01:20:34;;;;;;;1.10;1.10;;;2.00;99.90;3.60;95443.00;;;;5049472;28;20424;-66
2023/12/13 01:23:23;;;;;;;0.90;0.90;;;2.00;99.90;3.30;95451.00;;;;5048282;28;20423;-64
2023/12/13 01:26:11;;;;;;;1.73;1.63;;;2.00;99.90;3.60;95453.00;;;;5047428;28;20466;-64
2023/12/13 01:29:00;;;;;;;0.90;0.90;;;2.10;99.90;3.90;95468.00;;;;5045793;28;20430;-63
2023/12/13 01:31:49;;;;;;;1.13;1.13;;;2.10;99.90;4.40;95446.00;;;;5049727;28;20438;-64
2023/12/13 01:34:39;;;;;;;0.90;0.90;;;2.20;99.90;4.10;95461.00;;;;5048501;28;20285;-65
2023/12/13 01:37:29;;;;;;;0.90;0.90;;;2.20;99.90;3.70;95453.00;;;;5049728;28;20602;-66
2023/12/13 01:40:19;;;;;;;1.20;1.20;;;2.20;99.90;3.80;95461.00;;;;5049422;28;20205;-66
2023/12/13 01:43:08;;;;;;;1.53;1.43;;;2.10;99.90;4.00;95439.00;;;;5047483;28;20432;-65
2023/12/13 01:45:58;;;;;;;0.80;0.80;;;2.20;99.90;4.50;95448.00;;;;5045427;28;20220;-65
2023/12/13 01:48:47;;;;;;;0.87;0.87;;;2.20;99.90;4.10;95444.00;;;;5049721;28;20428;-64
2023/12/13 01:51:40;;;;;;;1.27;1.20;;;2.30;99.90;3.60;95439.00;;;;5049050;28;20427;-66
2023/12/13 01:54:29;;;;;;;0.77;0.77;;;2.20;99.90;4.20;95445.00;;;;5048435;28;20634;-66
2023/12/13 01:57:18;;;;;;;1.30;1.30;;;2.20;99.90;4.60;95441.00;;;;5048390;28;20247;-65
2023/12/13 02:00:09;;;;;;;1.53;1.43;;;2.30;99.90;4.50;95460.00;;;;5047121;28;20220;-64
2023/12/13 02:02:58;;;;;;;1.00;1.00;;;2.30;99.90;4.20;95468.00;;;;5048432;28;20424;-64
2023/12/13 02:05:49;;;;;;;1.20;1.10;;;2.40;99.90;4.40;95450.00;;;;5048646;28;20831;-64
2023/12/13 02:08:39;;;;;;;1.13;1.10;;;2.40;99.90;4.50;95442.00;;;;5046582;28;20411;-64
2023/12/13 02:11:28;;;;;;;0.83;0.83;;;2.50;99.90;4.50;95445.00;;;;5049905;28;20211;-65
2023/12/13 02:14:17;;;;;;;1.37;1.37;;;2.50;99.90;4.10;95448.00;;;;5048495;28;20212;-64
2023/12/13 02:17:06;;;;;;;2.00;1.90;;;2.40;99.90;4.30;95444.00;;;;5047966;28;20228;-65
2023/12/13 02:19:55;;;;;;;0.90;0.90;;;2.40;99.90;4.60;95447.00;;;;5044929;28;20220;-65
2023/12/13 02:22:46;;;;;;;1.07;1.07;;;2.40;99.90;4.50;95448.00;;;;5048238;28;20205;-64
2023/12/13 02:25:40;;;;;;;0.90;0.90;;;2.40;99.90;4.40;95445.00;;;;5045769;28;20228;-64
2023/12/13 02:28:30;;;;;;;0.77;0.77;;;2.40;99.90;4.60;95432.00;;;;5048337;28;20215;-64
2023/12/13 02:31:21;;;;;;;1.43;1.33;;;2.50;99.90;4.70;95437.00;;;;5047653;28;20200;-65
2023/12/13 02:34:10;;;;;;;1.43;1.40;;;2.50;99.90;4.10;95437.00;;;;5046293;28;20686;-64
2023/12/13 02:36:59;;;;;;;1.10;1.10;;;2.50;99.90;4.70;95438.00;;;;5044704;28;20706;-65
2023/12/13 02:39:49;;;;;;;1.00;1.00;;;2.50;99.90;4.90;95436.00;;;;5049240;28;20201;-64
2023/12/13 02:42:38;;;;;;;1.07;1.07;;;2.50;99.90;4.50;95425.00;;;;5046250;28;20193;-64
2023/12/13 02:45:26;;;;;;;1.10;1.10;;;2.50;99.90;3.80;95445.00;;;;5049354;28;20217;-64
2023/12/13 02:48:15;;;;;;;1.10;1.10;;;2.40;99.90;3.70;95446.00;;;;5046920;28;20204;-66
2023/12/13 02:51:05;;;;;;;1.07;1.03;;;2.40;99.90;4.20;95420.00;;;;5045190;28;20224;-65
2023/12/13 02:53:53;;;;;;;0.90;0.90;;;2.40;99.90;4.70;95426.00;;;;5043282;28;20681;-64
2023/12/13 02:56:44;;;;;;;1.03;1.03;;;2.50;99.90;4.10;95416.00;;;;5047523;28;20228;-65
2023/12/13 02:59:32;;;;;;;1.40;1.30;;;2.50;99.90;3.90;95436.00;;;;5045486;28;20203;-64
2023/12/13 03:02:21;;;;;;;1.10;1.10;;;2.40;99.90;4.80;95441.00;;;;5053941;28;20219;-64
2023/12/13 03:05:10;;;;;;;1.53;1.43;;;2.50;99.90;5.00;95434.00;;;;5046038;28;20224;-64
2023/12/13 03:07:59;;;;;;;0.80;0.80;;;2.60;99.90;4.70;95436.00;;;;5043941;28;20196;-64
2023/12/13 03:10:48;;;;;;;1.00;1.00;;;2.60;99.90;4.50;95434.00;;;;5047947;28;20207;-65
2023/12/13 03:13:38;;;;;;;0.87;0.87;;;2.60;99.90;4.70;95430.00;;;;5048143;28;20281;-64
2023/12/13 03:16:28;;;;;;;0.90;0.90;;;2.60;99.90;5.00;95429.00;;;;5044768;28;20223;-64
2023/12/13 03:19:17;;;;;;;1.00;1.00;;;2.70;99.90;4.80;95425.00;;;;5048306;28;20250;-64
2023/12/13 03:22:06;;;;;;;1.60;1.53;;;2.70;99.90;4.50;95434.00;;;;5044047;28;20200;-65
2023/12/13 03:24:57;;;;;;;0.67;0.67;;;2.60;99.90;4.50;95430.00;;;;5045777;28;20208;-64
2023/12/13 03:27:46;;;;;;;0.80;0.80;;;2.60;99.90;4.40;95434.00;;;;5041633;28;20204;-64
2023/12/13 03:30:36;;;;;;;0.70;0.70;;;1.20;99.90;4.70;95431.00;;;;5047515;28;20200;-63
2023/12/13 03:33:25;;;;;;;0.93;0.93;;;2.50;99.90;4.60;95418.00;;;;5049441;28;20204;-64
2023/12/13 03:36:15;;;;;;;1.47;1.37;;;2.60;99.90;4.90;95421.00;;;;5046969;28;20312;-64
2023/12/13 03:39:04;;;;;;;0.80;0.80;;;2.70;99.90;4.90;95405.00;;;;5044290;28;20231;-64
2023/12/13 03:41:53;;;;;;;1.03;1.03;;;2.80;99.90;4.80;95401.00;;;;5043255;28;20207;-64
2023/12/13 03:44:42;;;;;;;1.00;1.00;;;2.80;99.90;4.60;95403.00;;;;5050550;28;20619;-64
2023/12/13 03:47:32;;;;;;;0.90;0.90;;;2.80;99.90;4.10;95385.00;;;;5047755;28;20196;-64
2023/12/13 03:50:21;;;;;;;1.40;1.30;;;2.70;99.90;4.30;95357.00;;;;5046189;28;20204;-63
2023/12/13 03:53:10;;;;;;;1.10;1.10;;;2.70;99.90;5.00;95337.00;;;;5046532;28;20211;-64
2023/12/13 03:56:00;;;;;;;0.87;0.87;;;2.70;99.90;5.20;95338.00;;;;5044344;28;20718;-64
2023/12/13 03:58:49;;;;;;;1.10;1.10;;;2.80;99.90;5.30;95373.00;;;;5048058;28;20247;-64
2023/12/13 04:01:38;;;;;;;1.00;1.00;;;2.90;99.90;5.40;95396.00;;;;5048494;28;20204;-64
2023/12/13 04:04:28;;;;;;;1.10;1.07;;;2.90;99.90;3.90;95391.00;;;;5047656;28;20603;-64
2023/12/13 04:07:17;;;;;;;1.67;1.57;;;2.80;99.90;4.70;95390.00;;;;5048050;28;21012;-64
2023/12/13 04:10:09;;;;;;;1.40;1.33;;;2.80;99.90;5.00;95398.00;;;;5043762;28;20217;-64
2023/12/13 04:12:58;;;;;;;0.90;0.90;;;2.90;99.90;5.30;95384.00;;;;5043936;28;20208;-64
2023/12/13 04:15:46;;;;;;;1.00;1.00;;;3.00;99.90;5.50;95387.00;;;;5048149;28;20231;-64
2023/12/13 04:18:36;;;;;;;0.90;0.90;;;3.10;99.90;5.50;95380.00;;;;5046864;28;20236;-64
2023/12/13 04:21:27;;;;;;;1.23;1.13;;;3.10;99.90;5.50;95380.00;;;;5046387;28;20295;-64
2023/12/13 04:24:16;;;;;;;1.37;1.30;;;3.10;99.90;5.40;95380.00;;;;5048389;28;20216;-64
2023/12/13 04:27:05;;;;;;;1.37;1.27;;;3.20;99.90;5.20;95376.00;;;;5043847;28;20233;-64
2023/12/13 04:29:54;;;;;;;1.00;1.00;;;3.10;99.90;5.00;95375.00;;;;5046245;28;20204;-64
2023/12/13 04:32:43;;;;;;;1.63;1.53;;;3.10;99.90;5.10;95386.00;;;;5047049;28;20200;-64
2023/12/13 04:35:33;;;;;;;1.30;1.20;;;3.10;99.90;5.30;95370.00;;;;5044210;28;20224;-64
2023/12/13 04:38:23;;;;;;;1.67;1.57;;;3.10;99.90;5.00;95357.00;;;;5051672;28;20859;-64
2023/12/13 04:41:12;;;;;;;1.90;1.80;;;3.10;99.90;5.10;95361.00;;;;5050912;28;20226;-64
2023/12/13 04:44:01;;;;;;;1.17;1.17;;;3.10;99.90;5.40;95374.00;;;;5046352;28;20209;-64
2023/12/13 04:46:49;;;;;;;1.23;1.17;;;3.10;99.90;5.20;95365.00;;;;5044602;28;20216;-65
2023/12/13 04:49:39;;;;;;;1.20;1.10;;;3.20;99.90;5.30;95363.00;;;;5050765;28;20205;-64
2023/12/13 04:52:29;;;;;;;1.40;1.30;;;3.10;99.90;5.40;95370.00;;;;5049304;28;20205;-64
2023/12/13 04:55:19;;;;;;;1.77;1.67;;;3.10;99.90;5.50;95376.00;;;;5050210;28;20240;-64
2023/12/13 04:58:08;;;;;;;1.60;1.50;;;3.20;99.90;5.10;95373.00;;;;5049785;28;20228;-63
2023/12/13 05:00:57;;;;;;;1.10;1.10;;;3.10;99.90;5.30;95365.00;;;;5049304;28;20575;-63
2023/12/13 05:03:46;;;;;;;0.93;0.93;;;3.10;99.90;5.10;95365.00;;;;5050228;28;20204;-63
2023/12/13 05:06:35;;;;;;;1.03;1.03;;;3.10;99.90;4.60;95373.00;;;;5048339;28;20239;-63
2023/12/13 05:09:24;;;;;;;0.80;0.80;;;3.00;99.90;4.80;95354.00;;;;5050174;28;20204;-64
2023/12/13 05:12:14;;;;;;;1.70;1.60;;;2.90;99.90;5.10;95348.00;;;;5047175;28;20231;-63
2023/12/13 05:15:04;;;;;;;0.93;0.93;;;2.90;99.90;5.20;95352.00;;;;5049734;28;20231;-63
2023/12/13 05:17:52;;;;;;;1.23;1.17;;;3.00;99.90;4.80;95342.00;;;;5045524;28;20235;-63
2023/12/13 05:20:42;;;;;;;1.00;1.00;;;3.00;99.90;4.50;95339.00;;;;5051539;28;20201;-63
2023/12/13 05:23:31;;;;;;;0.80;0.80;;;2.90;99.90;4.70;95329.00;;;;5051972;28;20201;-63
2023/12/13 05:26:19;;;;;;;1.83;1.73;;;2.80;99.90;4.30;95334.00;;;;5048067;28;20232;-63
2023/12/13 05:29:10;;;;;;;1.57;1.47;;;2.80;99.90;4.50;95330.00;;;;5046973;28;20215;-64
2023/12/13 05:31:58;;;;;;;1.00;1.00;;;2.70;99.90;4.70;95335.00;;;;5045778;28;20593;-66
2023/12/13 05:34:47;;;;;;;0.90;0.90;;;2.70;99.90;4.80;95344.00;;;;5050413;28;20584;-66
2023/12/13 05:37:36;;;;;;;0.80;0.80;;;2.70;99.90;4.70;95343.00;;;;5050130;28;20208;-65
2023/12/13 05:40:25;;;;;;;0.97;0.97;;;2.70;99.90;4.40;95357.00;;;;5052827;28;20617;-65
2023/12/13 05:43:14;;;;;;;1.33;1.33;;;2.70;99.90;4.30;95351.00;;;;5048899;28;20201;-63
2023/12/13 05:46:05;;;;;;;0.90;0.90;;;2.60;99.90;4.20;95350.00;;;;5047078;28;20227;-65
2023/12/13 05:48:54;;;;;;;1.60;1.50;;;2.20;99.90;4.50;95338.00;;;;5041371;28;20659;-66
2023/12/13 05:51:43;;;;;;;0.90;0.90;;;2.60;99.90;4.90;95341.00;;;;5048811;28;20211;-66
2023/12/13 05:54:32;;;;;;;1.40;1.30;;;2.70;99.90;4.80;95339.00;;;;5055509;28;20197;-65
2023/12/13 05:57:20;;;;;;;1.73;1.63;;;2.80;99.90;4.70;95345.00;;;;5056679;28;20211;-65
2023/12/13 06:00:10;;;;;;;1.50;1.40;;;2.80;99.90;4.40;95345.00;;;;5056174;28;20234;-65
2023/12/13 06:03:01;;;;;;;1.00;1.00;;;2.80;99.90;4.10;95349.00;;;;5053986;28;20207;-65
2023/12/13 06:05:51;;;;;;;0.93;0.93;;;2.80;99.90;4.10;95345.00;;;;5057844;28;20235;-66
2023/12/13 06:08:41;;;;;;;1.00;1.00;;;2.70;99.90;4.50;95362.00;;;;5047609;28;20197;-65
2023/12/13 06:11:30;;;;;;;1.17;1.10;;;2.70;99.90;4.50;95370.00;;;;5048017;28;20302;-63
2023/12/13 06:14:19;;;;;;;1.60;1.50;;;2.60;99.90;4.40;95376.00;;;;5053105;28;20219;-65
2023/12/13 06:17:08;;;;;;;1.03;1.03;;;2.60;99.90;4.30;95359.00;;;;5050669;28;20692;-66
2023/12/13 06:19:58;;;;;;;0.80;0.80;;;2.50;99.90;4.40;95365.00;;;;5050812;28;20231;-65
2023/12/13 06:22:47;;;;;;;1.10;1.10;;;2.50;99.90;4.80;95357.00;;;;5043344;28;20697;-65
2023/12/13 06:25:36;;;;;;;1.00;1.00;;;2.60;99.90;5.10;95369.00;;;;5041282;28;20232;-67
2023/12/13 06:28:24;;;;;;;1.23;1.13;;;2.70;99.90;5.10;95359.00;;;;5046644;28;20670;-67
2023/12/13 06:31:13;;;;;;;2.27;2.17;;;2.70;99.90;5.10;95361.00;;;;5040814;28;20217;-67
2023/12/13 06:34:02;;;;;;;0.93;0.93;;;2.80;99.90;5.20;95359.00;;;;5041031;28;20213;-67
2023/12/13 06:36:52;;;;;;;1.10;1.07;;;2.90;99.90;5.20;95360.00;;;;5043410;28;20708;-67
2023/12/13 06:39:41;;;;;;;1.53;1.43;;;2.90;99.90;5.10;95361.00;;;;5047746;28;20729;-67
2023/12/13 06:42:30;;;;;;;1.57;1.47;;;2.90;99.90;5.30;95350.00;;;;5046639;28;20212;-67
2023/12/13 06:45:20;;;;;;;1.83;1.73;;;2.90;99.90;4.90;95355.00;;;;5051862;28;20232;-67
2023/12/13 06:48:09;;;;;;;1.33;1.27;;;2.90;99.90;4.70;95346.00;;;;5043900;28;20223;-67
2023/12/13 06:50:59;;;;;;;1.40;1.30;;;2.80;99.90;4.40;95345.00;;;;5043630;28;20201;-67
2023/12/13 06:53:49;;;;;;;1.40;1.30;;;2.70;99.90;4.40;95335.00;;;;5045806;28;20196;-67
2023/12/13 06:56:38;;;;;;;1.20;1.20;;;2.60;99.90;4.90;95339.00;;;;5047720;28;20220;-67
2023/12/13 06:59:27;;;;;;;0.80;0.80;;;2.60;99.90;5.20;95349.00;;;;5046579;28;20235;-67
2023/12/13 07:02:16;;;;;;;1.93;1.83;;;2.70;99.90;5.20;95348.00;;;;5042535;28;20208;-67
2023/12/13 07:05:07;;;;;;;0.97;0.97;;;2.80;99.90;5.20;95343.00;;;;5042971;28;20220;-67
2023/12/13 07:07:56;;;;;;;1.13;1.10;;;2.80;99.90;5.20;95338.00;;;;5042857;28;20209;-67
2023/12/13 07:10:46;;;;;;;0.70;0.70;;;2.90;99.90;4.50;95332.00;;;;5046915;28;20197;-67
2023/12/13 07:13:35;;;;;;;1.00;1.00;;;2.80;99.90;3.70;95330.00;;;;5046768;28;20201;-67
2023/12/13 07:16:24;;;;;;;1.80;1.70;;;2.60;99.90;3.80;95343.00;;;;5046890;28;20239;-67
2023/12/13 07:19:13;;;;;;;1.77;1.67;;;2.50;99.90;4.40;95334.00;;;;5046946;28;20224;-67
2023/12/13 07:22:02;;;;;;;0.70;0.70;;;2.50;99.90;4.80;95338.00;;;;5047167;28;20266;-67
2023/12/13 07:24:51;;;;;;;1.00;1.00;;;2.60;99.90;4.60;95325.00;;;;5044279;28;20201;-67
2023/12/13 07:27:42;;;;;;;1.03;1.03;;;2.60;99.90;4.70;95315.00;;;;5046409;28;20650;-67
2023/12/13 07:30:31;;;;;;;0.90;0.90;;;2.60;99.90;5.00;95301.00;;;;5044733;28;20584;-67
2023/12/13 07:33:19;;;;;;;2.00;1.90;;;2.60;99.90;4.30;95305.00;;;;5043507;28;20209;-67
2023/12/13 07:36:11;;;;;;;1.50;1.43;;;2.60;99.90;4.40;95308.00;;;;5044449;28;20242;-68
2023/12/13 07:38:59;;;;;;;0.90;0.90;;;2.50;99.90;4.20;95314.00;;;;5043257;28;20573;-67
2023/12/13 07:41:48;;;;;;;1.17;1.17;;;2.50;99.90;4.40;95308.00;;;;5046092;28;20201;-67
2023/12/13 07:44:39;;;;;;;0.90;0.90;;;2.50;99.90;4.70;95339.00;;;;5046053;28;20212;-67
2023/12/13 07:47:27;;;;;;;1.30;1.23;;;2.60;99.90;4.70;95332.00;;;;5045428;28;20583;-67
2023/12/13 07:50:16;;;;;;;1.73;1.63;;;2.70;99.90;4.90;95348.00;;;;5045081;28;20193;-67
2023/12/13 07:53:05;;;;;;;1.03;1.00;;;2.70;99.90;4.80;95354.00;;;;5043594;28;20589;-67
2023/12/13 07:55:54;;;;;;;0.90;0.90;;;2.70;99.90;4.40;95350.00;;;;5046038;28;20225;-67
2023/12/13 07:58:43;;;;;;;1.00;1.00;;;2.70;99.90;4.50;95343.00;;;;5047498;28;20372;-67
2023/12/13 08:01:35;;;;;;;1.00;1.00;;;2.60;99.90;5.00;95348.00;;;;5043705;28;20200;-67
2023/12/13 08:04:24;;;;;;;1.20;1.20;;;2.70;99.90;5.10;95335.00;;;;5046220;28;20211;-67
2023/12/13 08:07:13;;;;;;;1.97;1.87;;;2.70;99.90;5.10;95333.00;;;;5044076;28;20204;-67
2023/12/13 08:10:06;;;;;;;1.13;1.10;;;2.80;99.90;4.90;95334.00;;;;5043053;28;20197;-67
2023/12/13 08:12:54;;;;;;;0.80;0.80;;;2.80;99.90;4.80;95334.00;;;;5043831;28;20208;-67
2023/12/13 08:15:45;;;;;;;0.70;0.70;;;2.80;99.90;5.30;95328.00;;;;5050313;28;20217;-67
2023/12/13 08:18:36;;;;;;;1.00;1.00;;;2.90;99.90;5.40;95340.00;;;;5050804;28;20215;-67
2023/12/13 08:21:25;;;;;;;1.77;1.67;;;3.00;99.90;5.10;95333.00;;;;5051217;28;20248;-67
2023/12/13 08:24:14;;;;;;;1.83;1.73;;;3.00;99.90;5.20;95337.00;;;;5046879;28;20612;-67
2023/12/13 08:27:02;;;;;;;1.53;1.43;;;3.00;99.90;4.70;95330.00;;;;5050712;28;20232;-67
2023/12/13 08:29:52;;;;;;;0.70;0.70;;;3.00;99.90;5.00;95341.00;;;;5047940;28;20200;-67
2023/12/13 08:32:41;;;;;;;1.70;1.60;;;2.90;99.90;4.90;95346.00;;;;5047789;28;20204;-67
2023/12/13 08:35:31;;;;;;;1.00;1.00;;;2.90;99.90;4.80;95339.00;;;;5048980;28;20510;-67
2023/12/13 08:38:20;;;;;;;1.60;1.50;;;2.80;99.90;5.10;95334.00;;;;5049251;28;20209;-67
2023/12/13 08:41:11;;;;;;;1.47;1.37;;;2.90;99.90;5.00;95327.00;;;;5048666;28;20225;-67
2023/12/13 08:44:00;;;;;;;0.90;0.90;;;2.90;99.90;4.40;95314.00;;;;5046853;28;20204;-67
2023/12/13 08:46:49;;;;;;;1.03;1.03;;;2.90;99.90;4.50;95329.00;;;;5048019;28;20224;-68
2023/12/13 08:49:38;;;;;;;1.57;1.47;;;2.90;99.90;5.10;95324.00;;;;5046459;28;20211;-67
2023/12/13 08:52:28;;;;;;;1.43;1.40;;;2.90;99.90;5.10;95335.00;;;;5048776;28;20212;-68
2023/12/13 08:55:18;;;;;;;1.80;1.70;;;3.00;99.90;5.20;95348.00;;;;5047155;28;20262;-67
2023/12/13 08:58:07;;;;;;;1.13;1.10;;;3.00;99.90;4.70;95347.00;;;;5045317;28;20654;-68
2023/12/13 09:00:56;;;;;;;0.80;0.80;;;3.20;99.90;4.80;95354.00;;;;5050837;28;20213;-67
2023/12/13 09:03:45;;;;;;;1.53;1.43;;;2.90;99.90;4.50;95343.00;;;;5050420;28;20586;-68
2023/12/13 09:06:33;;;;;;;1.20;1.20;;;2.90;99.90;4.90;95340.00;;;;5046187;28;20278;-67
2023/12/13 09:09:24;;;;;;;1.93;1.83;;;2.90;99.90;5.40;95350.00;;;;5048949;28;20608;-67
2023/12/13 09:12:13;;;;;;;1.97;1.87;;;3.00;99.90;5.60;95341.00;;;;5049280;28;20223;-67
2023/12/13 09:15:02;;;;;;;1.40;1.30;;;3.10;99.90;5.20;95337.00;;;;5045284;28;20223;-67
2023/12/13 09:17:51;;;;;;;1.00;1.00;;;3.10;99.90;4.80;95326.00;;;;5045190;28;20205;-67
2023/12/13 09:20:40;;;;;;;0.93;0.93;;;3.00;99.90;4.90;95321.00;;;;5041807;28;20246;-67
2023/12/13 09:23:29;;;;;;;1.00;1.00;;;3.00;99.90;4.90;95313.00;;;;5048227;28;20254;-67
2023/12/13 09:26:20;;;;;;;2.60;2.40;;;3.10;99.90;5.10;95309.00;;;;5048603;28;20240;-67
2023/12/13 09:29:09;;;;;;;0.80;0.80;;;3.10;99.90;5.10;95310.00;;;;5045189;28;20201;-67
2023/12/13 09:32:00;;;;;;;1.30;1.20;;;3.10;99.90;5.10;95307.00;;;;5048633;28;20196;-67
2023/12/13 09:34:49;;;;;;;1.20;1.10;;;3.10;99.90;5.00;95313.00;;;;5050326;28;20215;-68
2023/12/13 09:37:38;;;;;;;1.10;1.00;;;3.10;99.90;4.80;95307.00;;;;5053598;28;20200;-67
2023/12/13 09:40:27;;;;;;;1.37;1.30;;;3.10;99.90;5.10;95291.00;;;;5055385;28;20669;-67
2023/12/13 09:43:18;;;;;;;2.00;1.90;;;3.00;99.90;4.70;95283.00;;;;5050037;28;20219;-68
2023/12/13 09:46:08;;;;;;;0.87;0.87;;;3.00;99.90;4.70;95292.00;;;;5047371;28;20216;-67
2023/12/13 09:48:57;;;;;;;0.80;0.80;;;2.90;99.90;4.80;95295.00;;;;5049899;28;20235;-67
2023/12/13 09:51:48;;;;;;;1.00;1.00;;;2.90;99.90;4.90;95284.00;;;;5050614;28;20211;-68
2023/12/13 09:54:39;;;;;;;1.10;1.10;;;2.90;99.90;5.10;95277.00;;;;5050972;28;20269;-67
2023/12/13 09:57:29;;;;;;;1.83;1.73;;;3.00;99.90;5.50;95290.00;;;;5052516;28;20203;-68
2023/12/13 10:00:20;;;;;;;2.77;2.57;;;3.10;99.90;5.50;95284.00;;;;5048897;28;20219;-67
2023/12/13 10:03:08;;;;;;;0.80;0.80;;;3.10;99.90;5.40;95278.00;;;;5043992;28;20204;-68
2023/12/13 10:06:01;;;;;;;1.40;1.30;;;3.20;99.90;5.40;95267.00;;;;5048034;28;20469;-67
2023/12/13 10:08:55;;;;;;;1.20;1.10;;;3.30;99.90;5.50;95269.00;;;;5048588;28;20211;-67
2023/12/13 10:11:45;;;;;;;1.40;1.30;;;3.30;99.90;5.60;95256.00;;;;5050474;28;20203;-67
2023/12/13 10:14:36;;;;;;;1.00;1.00;;;3.40;99.90;5.00;95243.00;;;;5046017;28;20208;-67
2023/12/13 10:17:27;;;;;;;1.20;1.20;;;3.30;99.90;4.60;95247.00;;;;5051256;28;20589;-67
2023/12/13 10:20:16;;;;;;;1.03;1.03;;;3.20;99.90;4.80;95246.00;;;;5053218;28;20200;-67
2023/12/13 10:23:06;;;;;;;0.90;0.90;;;3.20;99.90;5.00;95254.00;;;;5045825;28;20586;-67
2023/12/13 10:25:55;;;;;;;0.93;0.93;;;3.20;99.90;4.80;95246.00;;;;5045590;28;20233;-67
2023/12/13 10:28:45;;;;;;;0.80;0.80;;;3.10;99.90;4.40;95250.00;;;;5053312;28;20204;-67
2023/12/13 10:31:35;;;;;;;0.90;0.90;;;3.00;99.90;4.00;95246.00;;;;5047005;28;20353;-67
2023/12/13 10:34:25;;;;;;;1.83;1.73;;;2.90;99.90;3.80;95254.00;;;;5052030;28;20397;-67
2023/12/13 10:37:14;;;;;;;1.17;1.17;;;2.80;99.90;4.40;95264.00;;;;5050195;28;20239;-68
2023/12/13 10:40:05;;;;;;;0.80;0.80;;;2.80;99.90;4.40;95261.00;;;;5047683;28;20583;-68
2023/12/13 10:42:54;;;;;;;0.97;0.97;;;2.80;99.90;4.90;95261.00;;;;5046093;28;20197;-67
2023/12/13 10:45:52;;;;;;;1.20;1.10;;;2.90;99.90;5.20;95272.00;;;;5046944;28;20231;-68
2023/12/13 10:48:42;;;;;;;1.00;1.00;;;3.00;99.90;5.00;95266.00;;;;5051132;28;20589;-68
2023/12/13 10:51:36;;;;;;;1.40;1.30;;;3.00;99.90;4.90;95265.00;;;;5046406;28;20726;-68
2023/12/13 10:54:25;;;;;;;1.93;1.83;;;3.10;99.90;4.70;95262.00;;;;5053276;28;20212;-68
2023/12/13 10:57:15;;;;;;;1.63;1.53;;;3.10;99.90;5.10;95248.00;;;;5047212;28;20262;-68
2023/12/13 11:00:05;;;;;;;1.37;1.27;;;3.20;99.90;5.20;95253.00;;;;5048459;28;20211;-67
2023/12/13 11:03:04;;;;;;;0.73;0.73;;;3.30;99.90;5.00;95255.00;;;;5044286;28;20224;-68
2023/12/13 11:05:54;;;;;;;0.90;0.90;;;3.30;99.90;5.00;95260.00;;;;5050235;28;20710;-67
2023/12/13 11:08:45;;;;;;;0.50;0.50;;;3.30;99.90;5.50;95261.00;;;;5050406;28;20204;-68
2023/12/13 11:11:34;;;;;;;0.70;0.70;;;3.30;99.90;5.90;95269.00;;;;5049017;28;20200;-67
2023/12/13 11:14:26;;;;;;;1.93;1.83;;;3.40;99.90;5.70;95261.00;;;;5049639;28;20209;-68
2023/12/13 11:17:15;;;;;;;2.40;2.20;;;3.50;99.90;5.00;95242.00;;;;5048184;28;20208;-68
2023/12/13 11:20:09;;;;;;;0.93;0.93;;;3.40;99.90;4.90;95243.00;;;;5048100;28;20686;-68
2023/12/13 11:22:58;;;;;;;0.87;0.87;;;3.30;99.90;4.70;95257.00;;;;5042231;28;20224;-67
2023/12/13 11:25:49;;;;;;;1.10;1.10;;;3.10;99.90;4.80;95259.00;;;;5047921;28;20243;-68
2023/12/13 11:28:39;;;;;;;1.00;1.00;;;3.10;99.90;4.70;95267.00;;;;5045766;28;20199;-68
2023/12/13 11:31:28;;;;;;;1.80;1.70;;;3.10;99.90;5.30;95256.00;;;;5048474;28;20204;-68
2023/12/13 11:34:18;;;;;;;2.13;2.03;;;3.10;99.90;5.50;95236.00;;;;5047096;28;20677;-68
2023/12/13 11:37:09;;;;;;;1.33;1.23;;;3.20;99.90;5.40;95231.00;;;;5043744;28;20229;-67
2023/12/13 11:39:58;;;;;;;0.90;0.90;;;3.30;99.90;5.00;95244.00;;;;5052881;28;20199;-68
2023/12/13 11:42:49;;;;;;;1.00;1.00;;;3.30;99.90;5.00;95254.00;;;;5050355;28;20232;-67
2023/12/13 11:45:49;;;;;;;1.13;1.13;;;3.30;99.90;5.30;95253.00;;;;5045699;28;20709;-67
2023/12/13 11:48:38;;;;;;;1.50;1.40;;;3.30;99.90;5.40;95254.00;;;;5050042;28;20209;-68
2023/12/13 11:51:27;;;;;;;1.50;1.40;;;3.40;99.90;4.90;95245.00;;;;5053844;28;20201;-67
2023/12/13 11:54:19;;;;;;;1.73;1.63;;;3.30;99.90;5.30;95249.00;;;;5053870;28;20204;-67
2023/12/13 11:57:15;;;;;;;1.40;1.30;;;3.30;99.90;5.70;95262.00;;;;5050165;28;20224;-68
2023/12/13 12:00:07;;;;;;;1.43;1.33;;;3.40;99.90;5.50;95240.00;;;;5049799;28;20668;-67
2023/12/13 12:02:56;;;;;;;1.07;1.03;;;3.40;99.90;5.40;95235.00;;;;5047946;28;20212;-68
2023/12/13 12:05:47;;;;;;;1.13;1.10;;;3.40;99.90;5.30;95242.00;;;;5050713;28;20228;-68
2023/12/13 12:08:36;;;;;;;0.90;0.90;;;3.30;99.90;5.20;95235.00;;;;5049686;28;20197;-68
2023/12/13 12:11:25;;;;;;;1.83;1.73;;;3.30;99.90;5.20;95245.00;;;;5050781;28;20488;-67
2023/12/13 12:14:14;;;;;;;1.53;1.47;;;3.40;99.90;5.10;95239.00;;;;5047807;28;20201;-68
2023/12/13 12:17:05;;;;;;;1.07;1.07;;;3.40;99.90;5.30;95238.00;;;;5052449;28;20231;-68
2023/12/13 12:19:56;;;;;;;1.30;1.20;;;3.40;99.90;5.60;95240.00;;;;5049990;28;20712;-69
2023/12/13 12:22:47;;;;;;;1.37;1.27;;;3.50;99.90;5.50;95239.00;;;;5050197;28;20272;-68
2023/12/13 12:25:36;;;;;;;1.27;1.17;;;3.50;99.90;5.20;95243.00;;;;5050626;28;20223;-67
2023/12/13 12:28:27;;;;;;;1.00;1.00;;;3.50;99.90;5.00;95243.00;;;;5053093;28;20216;-66
2023/12/13 12:31:16;;;;;;;2.77;2.57;;;3.50;99.90;5.10;95246.00;;;;5046071;28;20208;-65
2023/12/13 12:34:06;;;;;;;0.93;0.93;;;3.40;99.90;5.00;95243.00;;;;5048287;28;20235;-65
2023/12/13 12:36:55;;;;;;;1.23;1.13;;;3.30;99.90;5.10;95263.00;;;;5052751;28;20226;-66
2023/12/13 12:39:44;;;;;;;1.47;1.37;;;3.30;99.90;4.70;95261.00;;;;5052405;28;20211;-65
2023/12/13 12:42:33;;;;;;;1.30;1.23;;;3.20;99.90;5.20;95266.00;;;;5049540;28;20335;-66
2023/12/13 12:45:22;;;;;;;1.50;1.40;;;3.20;99.90;5.40;95266.00;;;;5048743;28;20527;-65
2023/12/13 12:48:12;;;;;;;0.93;0.93;;;3.30;99.90;5.40;95272.00;;;;5047229;28;20201;-65
2023/12/13 12:51:02;;;;;;;1.13;1.13;;;3.40;99.90;5.40;95269.00;;;;5050647;28;20681;-65